createdAt,value
2024-04-08T10:39:40.338Z,41.92
2024-04-08T10:40:43.429Z,44.23
2024-04-08T10:41:45.659Z,43.87
2024-04-08T10:42:48.763Z,43.72
2024-04-08T10:43:53.568Z,43.06
2024-04-08T10:44:56.116Z,42.91
2024-04-08T10:45:58.440Z,43.80
2024-04-08T10:47:03.354Z,43.62
2024-04-08T10:48:10.704Z,43.81
2024-04-08T10:49:12.915Z,43.45
2024-04-08T10:50:15.437Z,43.47
2024-04-08T10:51:21.347Z,43.05
2024-04-08T10:52:23.605Z,41.83
2024-04-08T10:53:26.614Z,42.70
2024-04-08T10:54:32.535Z,41.27
2024-04-08T10:55:37.347Z,42.59
2024-04-08T10:56:39.545Z,43.08
2024-04-08T10:57:41.729Z,43.25
2024-04-08T10:58:46.601Z,40.51
2024-04-08T10:59:48.751Z,40.49
2024-04-08T11:00:50.979Z,39.75
2024-04-08T11:01:56.373Z,40.57
2024-04-08T11:02:58.829Z,40.38
2024-04-08T11:04:01.299Z,40.55
2024-04-08T11:05:08.221Z,40.29
2024-04-08T11:06:12.381Z,38.12
2024-04-08T11:07:14.701Z,39.36
2024-04-08T11:08:17.672Z,39.06
2024-04-08T11:09:22.854Z,39.40
2024-04-08T11:10:24.978Z,39.95
2024-04-08T11:11:30.151Z,40.20
2024-04-08T11:12:35.276Z,40.23
2024-04-08T11:13:37.398Z,39.70
2024-04-08T11:14:41.130Z,39.24
2024-04-08T11:15:51.302Z,38.92
2024-04-08T11:16:53.496Z,39.40
2024-04-08T11:17:56.884Z,39.54
2024-04-08T11:18:59.496Z,39.60
2024-04-08T11:20:06.783Z,39.77
2024-04-08T11:21:09.364Z,39.11
2024-04-08T11:22:11.762Z,39.78
2024-04-08T11:23:15.450Z,39.76
2024-04-08T11:24:20.273Z,39.84
2024-04-08T11:25:22.526Z,39.88
2024-04-08T11:26:24.608Z,39.03
2024-04-08T11:27:29.691Z,39.19
2024-04-08T11:28:37.563Z,39.58
2024-04-08T11:29:42.948Z,37.51
2024-04-08T11:30:47.516Z,39.05
2024-04-08T11:31:49.978Z,38.37
2024-04-08T11:32:55.956Z,38.04
2024-04-08T11:33:58.170Z,38.39
2024-04-08T11:35:01.206Z,37.75
2024-04-08T11:36:04.235Z,38.65
2024-04-08T11:37:09.665Z,38.76
2024-04-08T11:38:26.105Z,38.27
2024-04-08T11:39:36.744Z,37.75
2024-04-08T11:40:38.757Z,38.31
2024-04-08T11:41:43.817Z,37.80
2024-04-08T11:42:48.608Z,37.90
2024-04-08T11:43:50.698Z,36.25
2024-04-08T11:45:05.829Z,38.46
2024-04-08T11:46:10.101Z,38.33
2024-04-08T11:47:14.890Z,38.57
2024-04-08T11:48:21.408Z,37.80
2024-04-08T11:49:23.530Z,38.69
2024-04-08T11:50:26.080Z,38.40
2024-04-08T11:51:31.036Z,38.08
2024-04-08T11:52:33.234Z,37.87
2024-04-08T11:53:35.408Z,38.25
2024-04-08T11:54:49.672Z,38.02
2024-04-08T11:56:02.289Z,36.76
2024-04-08T11:57:05.251Z,36.86
2024-04-08T11:58:10.315Z,37.11
2024-04-08T11:59:12.586Z,37.56
2024-04-08T12:00:21.844Z,35.11
2024-04-08T12:01:24.419Z,34.42
2024-04-08T12:02:26.808Z,36.93
2024-04-08T12:03:28.894Z,32.58
2024-04-08T12:04:33.916Z,36.88
2024-04-08T12:05:36.091Z,36.93
2024-04-08T12:06:38.349Z,37.26
2024-04-08T12:07:43.541Z,36.79
2024-04-08T12:08:45.815Z,36.93
2024-04-08T12:09:47.890Z,37.20
2024-04-08T12:10:50.064Z,35.36
2024-04-08T12:11:55.247Z,36.41
2024-04-08T12:13:17.300Z,33.08
2024-04-08T12:14:19.541Z,36.29
2024-04-08T12:15:24.722Z,35.02
2024-04-08T12:16:27.817Z,34.91
2024-04-08T12:17:29.926Z,35.26
2024-04-08T12:18:32.160Z,35.71
2024-04-08T12:19:36.853Z,36.65
2024-04-08T12:20:39.116Z,36.83
2024-04-08T12:21:41.211Z,36.54
2024-04-08T12:22:45.935Z,36.23
2024-04-08T12:23:48.161Z,36.05
2024-04-08T12:24:50.214Z,36.93
2024-04-08T12:25:55.076Z,36.67
2024-04-08T12:26:57.363Z,36.32
2024-04-08T12:27:59.444Z,36.81
2024-04-08T12:29:06.796Z,34.59
2024-04-08T12:30:09.949Z,34.50
2024-04-08T12:31:12.091Z,35.48
2024-04-08T12:32:14.066Z,36.22
2024-04-08T12:33:18.773Z,36.32
2024-04-08T12:34:21.021Z,36.03
2024-04-08T12:35:23.200Z,35.72
2024-04-08T12:36:27.736Z,35.85
2024-04-08T12:37:35.388Z,35.86
2024-04-08T12:38:37.822Z,36.58
2024-04-08T12:39:41.403Z,34.68
2024-04-08T12:40:46.408Z,34.93
2024-04-08T12:41:48.753Z,35.27
2024-04-08T12:42:50.888Z,36.20
2024-04-08T12:43:55.652Z,36.38
2024-04-08T12:45:08.288Z,36.36
2024-04-08T12:46:16.868Z,36.47
2024-04-08T12:47:18.999Z,35.19
2024-04-08T12:48:21.346Z,36.25
2024-04-08T12:49:28.012Z,34.21
2024-04-08T12:50:33.169Z,35.62
2024-04-08T12:51:35.856Z,33.58
2024-04-08T12:52:38.389Z,34.89
2024-04-08T12:53:43.232Z,34.97
2024-04-08T12:54:45.408Z,35.35
2024-04-08T12:55:48.819Z,35.39
2024-04-08T12:56:51.087Z,34.97
2024-04-08T12:57:56.062Z,35.17
2024-04-08T12:58:58.375Z,34.97
2024-04-08T13:00:04.594Z,34.55
2024-04-08T13:01:09.956Z,35.00
2024-04-08T13:02:12.266Z,35.59
2024-04-08T13:03:14.650Z,35.87
2024-04-08T13:04:19.698Z,35.91
2024-04-08T13:05:21.975Z,34.35
2024-04-08T13:06:24.554Z,33.45
2024-04-08T13:07:26.859Z,34.24
2024-04-08T13:08:31.755Z,34.18
2024-04-08T13:09:33.930Z,33.84
2024-04-08T13:10:36.034Z,34.51
2024-04-08T13:11:38.354Z,34.82
2024-04-08T13:12:43.184Z,35.03
2024-04-08T13:13:48.138Z,35.11
2024-04-08T13:14:51.602Z,34.82
2024-04-08T13:15:56.412Z,34.59
2024-04-08T13:17:02.145Z,35.00
2024-04-08T13:18:04.750Z,34.50
2024-04-08T13:19:06.905Z,34.99
2024-04-08T13:20:09.521Z,34.54
2024-04-08T13:21:14.826Z,34.84
2024-04-08T13:22:16.932Z,33.04
2024-04-08T13:23:19.005Z,32.69
2024-04-08T13:24:23.822Z,32.89
2024-04-08T13:25:26.092Z,34.17
2024-04-08T13:26:28.356Z,34.38
2024-04-08T13:27:30.649Z,34.82
2024-04-08T13:28:35.474Z,34.50
2024-04-08T13:29:37.951Z,33.81
2024-04-08T13:30:40.098Z,34.31
2024-04-08T13:31:47.646Z,34.32
2024-04-08T13:32:49.857Z,34.04
2024-04-08T13:33:52.042Z,34.51
2024-04-08T13:34:56.888Z,33.85
2024-04-08T13:35:59.172Z,34.19
2024-04-08T13:37:01.259Z,34.28
2024-04-08T13:38:03.643Z,34.28
2024-04-08T13:39:09.439Z,34.30
2024-04-08T13:40:12.889Z,34.33
2024-04-08T13:41:15.054Z,34.63
2024-04-08T13:42:17.311Z,34.76
2024-04-08T13:43:22.091Z,34.09
2024-04-08T13:44:24.136Z,34.41
2024-04-08T13:46:28.619Z,33.24
2024-04-08T13:47:36.148Z,33.96
2024-04-08T13:48:38.434Z,33.71
2024-04-08T13:49:43.656Z,33.92
2024-04-08T13:50:47.329Z,34.17
2024-04-08T13:51:56.834Z,33.49
2024-04-08T13:52:58.968Z,34.33
2024-04-08T13:54:01.737Z,34.93
2024-04-08T13:55:07.011Z,34.91
2024-04-08T13:56:09.632Z,34.63
2024-04-08T13:57:11.926Z,34.30
2024-04-08T13:58:14.076Z,32.98
2024-04-08T13:59:18.928Z,33.34
2024-04-08T14:00:21.188Z,33.77
2024-04-08T14:01:24.029Z,34.25
2024-04-08T14:02:29.019Z,34.09
2024-04-08T14:03:34.016Z,34.04
2024-04-08T14:04:37.118Z,34.31
2024-04-08T14:05:39.437Z,33.29
2024-04-08T14:06:44.319Z,33.22
2024-04-08T14:07:46.651Z,32.34
2024-04-08T14:08:48.819Z,33.41
2024-04-08T14:09:54.089Z,34.22
2024-04-08T14:10:56.198Z,34.24
2024-04-08T14:11:58.504Z,34.34
2024-04-08T14:13:00.890Z,34.40
2024-04-08T14:14:05.859Z,34.14
2024-04-08T14:15:09.301Z,34.10
2024-04-08T14:16:11.467Z,34.08
2024-04-08T14:17:18.689Z,33.62
2024-04-08T14:18:20.975Z,33.81
2024-04-08T14:19:25.968Z,33.44
2024-04-08T14:20:31.314Z,33.85
2024-04-08T14:21:33.577Z,34.27
2024-04-08T14:22:38.583Z,33.78
2024-04-08T14:23:43.843Z,34.27
2024-04-08T14:24:45.874Z,34.02
2024-04-08T14:25:48.104Z,33.85
2024-04-08T14:26:50.264Z,33.68
2024-04-08T14:27:55.108Z,33.69
2024-04-08T14:28:57.372Z,33.96
2024-04-08T14:30:00.932Z,34.13
2024-04-08T14:31:06.483Z,34.09
2024-04-08T14:32:08.549Z,34.44
2024-04-08T14:33:10.960Z,32.61
2024-04-08T14:34:16.459Z,33.44
2024-04-08T14:35:21.259Z,32.41
2024-04-08T14:36:25.372Z,31.99
2024-04-08T14:37:43.968Z,32.30
2024-04-08T14:39:05.343Z,33.42
2024-04-08T14:40:14.462Z,34.31
2024-04-08T14:41:22.178Z,34.40
2024-04-08T14:42:24.320Z,34.58
2024-04-08T14:43:30.245Z,34.45
2024-04-08T14:44:45.192Z,34.07
2024-04-08T14:45:50.310Z,33.64
2024-04-08T14:46:55.856Z,33.88
2024-04-08T14:48:01.845Z,34.29
2024-04-08T14:49:04.080Z,34.10
2024-04-08T14:50:07.253Z,34.34
2024-04-08T14:51:16.238Z,33.41
2024-04-08T14:52:23.853Z,33.91
2024-04-08T14:53:33.213Z,33.79
2024-04-08T14:54:35.753Z,33.89
2024-04-08T14:55:41.069Z,33.71
2024-04-08T14:56:45.450Z,33.96
2024-04-08T14:57:48.431Z,34.00
2024-04-08T14:58:54.133Z,33.99
2024-04-08T14:59:57.361Z,33.80
2024-04-08T15:01:02.256Z,33.95
2024-04-08T15:02:07.560Z,33.94
2024-04-08T15:03:09.828Z,33.80
2024-04-08T15:04:12.127Z,33.89
2024-04-08T15:05:17.196Z,33.58
2024-04-08T15:06:22.269Z,32.73
2024-04-08T15:07:28.239Z,33.49
2024-04-08T15:08:33.739Z,33.76
2024-04-08T15:09:40.118Z,33.66
2024-04-08T15:10:42.093Z,33.01
2024-04-08T15:11:47.177Z,33.47
2024-04-08T15:12:50.335Z,33.11
2024-04-08T15:13:52.594Z,33.38
2024-04-08T15:14:54.811Z,32.92
2024-04-08T15:15:57.019Z,32.47
2024-04-08T15:17:03.504Z,32.51
2024-04-08T15:18:06.670Z,33.28
2024-04-08T15:19:09.000Z,33.43
2024-04-08T15:20:11.260Z,33.71
2024-04-08T15:21:15.991Z,33.22
2024-04-08T15:22:20.858Z,33.40
2024-04-08T15:23:23.583Z,33.46
2024-04-08T15:24:25.688Z,33.06
2024-04-08T15:25:30.633Z,33.52
2024-04-08T15:26:32.678Z,33.63
2024-04-08T15:27:34.805Z,33.17
2024-04-08T15:28:39.596Z,33.17
2024-04-08T15:29:45.886Z,33.47
2024-04-08T15:30:56.386Z,33.60
2024-04-08T15:32:01.879Z,33.71
2024-04-08T15:33:04.543Z,33.85
2024-04-08T15:34:07.015Z,33.59
2024-04-08T15:35:10.929Z,33.25
2024-04-08T15:36:17.355Z,33.49
2024-04-08T15:37:22.393Z,33.83
2024-04-08T15:38:24.706Z,33.83
2024-04-08T15:39:26.875Z,33.44
2024-04-08T15:40:31.805Z,33.92
2024-04-08T15:41:33.999Z,34.30
2024-04-08T15:42:36.196Z,34.00
2024-04-08T15:43:38.312Z,34.10
2024-04-08T15:44:43.109Z,34.73
2024-04-08T15:45:54.675Z,33.89
2024-04-08T15:46:56.705Z,34.39
2024-04-08T15:47:58.915Z,34.14
2024-04-08T15:49:03.916Z,34.85
2024-04-08T15:50:07.160Z,34.65
2024-04-08T15:51:10.420Z,34.68
2024-04-08T15:52:12.580Z,34.62
2024-04-08T15:53:19.891Z,34.85
2024-04-08T15:54:22.692Z,34.94
2024-04-08T15:55:24.867Z,34.98
2024-04-08T15:56:27.446Z,34.82
2024-04-08T15:57:32.611Z,35.01
2024-04-08T15:58:34.991Z,34.92
2024-04-08T15:59:37.198Z,35.06
2024-04-08T16:00:39.555Z,35.37
2024-04-08T16:01:44.313Z,35.33
2024-04-08T16:02:46.553Z,35.58
2024-04-08T16:03:49.066Z,35.63
2024-04-08T16:04:51.512Z,35.65
2024-04-08T16:05:53.885Z,35.72
2024-04-08T16:06:58.771Z,35.79
2024-04-08T16:08:01.259Z,35.95
2024-04-08T16:09:06.051Z,36.00
2024-04-08T16:10:09.651Z,36.01
2024-04-08T16:11:21.073Z,36.02
2024-04-08T16:12:23.455Z,36.13
2024-04-08T16:13:25.551Z,36.26
2024-04-08T16:14:30.204Z,36.07
2024-04-08T16:15:33.385Z,36.20
2024-04-08T16:16:35.865Z,36.55
2024-04-08T16:17:40.875Z,36.13
2024-04-08T16:18:43.237Z,36.42
2024-04-08T16:19:48.064Z,36.23
2024-04-08T16:20:56.976Z,36.56
2024-04-08T16:22:01.738Z,36.58
2024-04-08T16:23:21.174Z,36.30
2024-04-08T16:24:28.737Z,36.52
2024-04-08T16:25:33.432Z,36.72
2024-04-08T16:26:35.868Z,36.65
2024-04-08T16:27:39.800Z,36.68
2024-04-08T16:28:44.570Z,36.47
2024-04-08T16:29:47.384Z,36.51
2024-04-08T16:30:56.197Z,36.55
2024-04-08T16:32:00.859Z,36.67
2024-04-08T16:33:03.247Z,36.61
2024-04-08T16:34:05.595Z,36.82
2024-04-08T16:35:10.755Z,37.06
2024-04-08T16:36:13.804Z,37.14
2024-04-08T16:37:15.903Z,37.07
2024-04-08T16:38:18.842Z,37.44
2024-04-08T16:39:23.602Z,37.19
2024-04-08T16:40:28.336Z,37.39
2024-04-08T16:41:30.596Z,37.28
2024-04-08T16:42:33.059Z,37.81
2024-04-08T16:43:35.567Z,37.48
2024-04-08T16:44:40.411Z,37.56
2024-04-08T16:45:42.627Z,37.64
2024-04-08T16:46:45.489Z,37.74
2024-04-08T16:47:47.689Z,37.39
2024-04-08T16:48:52.634Z,37.62
2024-04-08T16:49:55.465Z,37.72
2024-04-08T16:50:58.516Z,37.70
2024-04-08T16:52:00.690Z,37.74
2024-04-08T16:53:05.431Z,37.57
2024-04-08T16:54:07.675Z,37.90
2024-04-08T16:55:09.801Z,37.82
2024-04-08T16:56:17.128Z,37.92
2024-04-08T16:57:19.312Z,37.93
2024-04-08T16:58:21.917Z,37.72
2024-04-08T16:59:24.066Z,37.63
2024-04-08T17:00:29.067Z,38.30
2024-04-08T17:01:31.801Z,38.05
2024-04-08T17:02:33.996Z,38.31
2024-04-08T17:03:36.411Z,38.19
2024-04-08T17:04:41.493Z,38.18
2024-04-08T17:05:44.416Z,38.42
2024-04-08T17:06:50.294Z,38.78
2024-04-08T17:07:52.725Z,38.50
2024-04-08T17:08:57.511Z,38.62
2024-04-08T17:09:59.691Z,38.81
2024-04-08T17:11:02.607Z,38.72
2024-04-08T17:12:11.300Z,38.86
2024-04-08T17:13:13.422Z,38.88
2024-04-08T17:14:15.461Z,38.46
2024-04-08T17:15:20.033Z,38.77
2024-04-08T17:16:26.881Z,38.79
2024-04-08T17:17:29.069Z,38.74
2024-04-08T17:18:31.807Z,39.02
2024-04-08T17:19:34.094Z,38.96
2024-04-08T17:20:38.930Z,38.92
2024-04-08T17:21:41.074Z,38.97
2024-04-08T17:22:43.260Z,39.43
2024-04-08T17:23:45.520Z,39.55
2024-04-08T17:24:50.265Z,39.66
2024-04-08T17:25:53.122Z,39.53
2024-04-08T17:26:55.363Z,39.49
2024-04-08T17:28:00.113Z,39.40
2024-04-08T17:29:04.962Z,39.72
2024-04-08T17:30:08.401Z,39.48
2024-04-08T17:31:10.569Z,39.69
2024-04-08T17:32:17.707Z,39.52
2024-04-08T17:33:20.474Z,39.81
2024-04-08T17:34:22.967Z,39.93
2024-04-08T17:35:27.647Z,39.88
2024-04-08T17:36:29.943Z,39.88
2024-04-08T17:37:32.057Z,39.95
2024-04-08T17:38:39.017Z,39.97
2024-04-08T17:39:43.869Z,39.97
2024-04-08T17:40:55.029Z,39.91
2024-04-08T17:41:57.177Z,40.26
2024-04-08T17:43:04.948Z,40.09
2024-04-08T17:44:08.400Z,40.29
2024-04-08T17:45:10.661Z,40.21
2024-04-08T17:46:15.464Z,40.46
2024-04-08T17:47:17.774Z,40.50
2024-04-08T17:48:20.294Z,40.42
2024-04-08T17:49:23.502Z,40.32
2024-04-08T17:50:28.465Z,40.49
2024-04-08T17:51:30.724Z,40.40
2024-04-08T17:52:32.841Z,40.39
2024-04-08T17:53:39.105Z,40.44
2024-04-08T17:54:41.314Z,40.71
2024-04-08T17:55:43.442Z,40.84
2024-04-08T17:56:45.654Z,41.08
2024-04-08T17:57:51.408Z,40.95
2024-04-08T17:58:56.232Z,41.07
2024-04-08T17:59:58.516Z,41.61
2024-04-08T18:01:08.073Z,41.54
2024-04-08T18:02:10.412Z,42.38
2024-04-08T18:03:12.602Z,42.59
2024-04-08T18:04:17.499Z,42.49
2024-04-08T18:05:19.684Z,43.22
2024-04-08T18:06:23.281Z,43.60
2024-04-08T18:07:28.164Z,43.67
2024-04-08T18:08:30.220Z,44.21
2024-04-08T18:09:32.731Z,44.07
2024-04-08T18:10:38.024Z,44.56
2024-04-08T18:11:48.518Z,44.39
2024-04-08T18:12:56.185Z,44.81
2024-04-08T18:14:01.871Z,44.82
2024-04-08T18:15:05.200Z,45.21
2024-04-08T18:16:11.018Z,45.55
2024-04-08T18:17:15.045Z,45.60
2024-04-08T18:18:17.422Z,46.07
2024-04-08T18:19:22.324Z,46.26
2024-04-08T18:20:24.749Z,46.35
2024-04-08T18:21:27.684Z,46.47
2024-04-08T18:22:29.740Z,46.55
2024-04-08T18:23:34.553Z,46.79
2024-04-08T18:24:39.872Z,47.00
2024-04-08T18:25:42.805Z,47.33
2024-04-08T18:26:47.772Z,47.29
2024-04-08T18:27:51.554Z,47.50
2024-04-08T18:28:54.225Z,47.42
2024-04-08T18:29:59.292Z,47.31
2024-04-08T18:31:06.056Z,47.56
2024-04-08T18:32:08.206Z,47.70
2024-04-08T18:33:10.636Z,47.71
2024-04-08T18:34:13.101Z,48.37
2024-04-08T18:35:18.221Z,48.48
2024-04-08T18:36:20.676Z,48.59
2024-04-08T18:37:23.921Z,48.68
2024-04-08T18:42:50.550Z,50.33
2024-04-08T18:43:55.516Z,50.06
2024-04-08T18:45:00.257Z,48.86
2024-04-08T18:46:03.464Z,49.34
2024-04-08T18:47:08.981Z,49.20
2024-04-08T18:48:11.384Z,49.83
2024-04-08T18:49:14.174Z,49.68
2024-04-08T18:50:16.457Z,49.79
2024-04-08T18:51:21.601Z,49.46
2024-04-08T18:52:23.871Z,49.52
2024-04-08T18:53:26.139Z,49.55
2024-04-08T18:54:30.998Z,49.76
2024-04-08T18:55:33.415Z,50.23
2024-04-08T18:56:35.664Z,49.92
2024-04-08T18:57:38.802Z,50.03
2024-04-08T18:58:43.804Z,50.36
2024-04-08T18:59:45.966Z,50.57
2024-04-08T19:00:50.840Z,50.39
2024-04-08T19:01:53.067Z,50.83
2024-04-08T19:02:55.716Z,50.79
2024-04-08T19:04:00.605Z,50.57
2024-04-08T19:05:03.897Z,50.77
2024-04-08T19:06:06.508Z,50.43
2024-04-08T19:07:12.045Z,50.99
2024-04-08T19:08:14.241Z,51.36
2024-04-08T19:09:16.914Z,51.31
2024-04-08T19:10:21.708Z,51.40
2024-04-08T19:11:31.805Z,51.11
2024-04-08T19:12:38.385Z,51.71
2024-04-08T19:13:43.244Z,51.60
2024-04-08T19:14:45.440Z,51.64
2024-04-08T19:15:50.285Z,51.32
2024-04-08T19:16:58.176Z,51.55
2024-04-08T19:18:00.815Z,51.51
2024-04-08T19:19:04.595Z,51.53
2024-04-08T19:20:07.985Z,51.01
2024-04-08T19:21:12.741Z,51.31
2024-04-08T19:22:14.992Z,52.20
2024-04-08T19:23:17.048Z,52.01
2024-04-08T19:24:20.925Z,52.20
2024-04-08T19:25:25.757Z,52.21
2024-04-08T19:26:30.076Z,51.99
2024-04-08T19:27:32.412Z,51.76
2024-04-08T19:28:37.389Z,52.26
2024-04-08T19:29:39.614Z,52.68
2024-04-08T19:30:41.890Z,53.06
2024-04-08T19:31:47.811Z,52.69
2024-04-08T19:32:53.093Z,52.96
2024-04-08T19:33:55.253Z,52.63
2024-04-08T19:34:57.644Z,52.99
2024-04-08T19:36:02.597Z,53.07
2024-04-08T19:37:05.728Z,53.17
2024-04-08T19:38:08.652Z,53.30
2024-04-08T19:39:10.742Z,53.35
2024-04-08T19:40:17.198Z,53.17
2024-04-08T19:41:19.544Z,53.48
2024-04-08T19:42:21.730Z,53.44
2024-04-08T19:43:23.961Z,53.41
2024-04-08T19:44:28.720Z,53.34
2024-04-08T19:45:37.727Z,53.64
2024-04-08T19:46:41.691Z,54.04
2024-04-08T19:47:47.130Z,53.26
2024-04-08T19:48:52.151Z,53.70
2024-04-08T19:49:54.899Z,53.76
2024-04-08T19:50:57.635Z,53.67
2024-04-08T19:52:00.687Z,53.92
2024-04-08T19:53:05.601Z,53.51
2024-04-08T19:54:07.846Z,53.89
2024-04-08T19:55:09.872Z,54.11
2024-04-08T19:56:13.222Z,54.13
2024-04-08T19:57:17.950Z,54.25
2024-04-08T19:58:20.093Z,54.46
2024-04-08T19:59:22.269Z,54.42
2024-04-08T20:00:27.208Z,54.61
2024-04-08T20:01:29.425Z,54.68
2024-04-08T20:02:32.094Z,54.93
2024-04-08T20:03:37.295Z,54.71
2024-04-08T20:04:42.295Z,54.67
2024-04-08T20:05:44.399Z,54.72
2024-04-08T20:06:46.555Z,55.00
2024-04-08T20:07:48.699Z,54.96
2024-04-08T20:08:54.079Z,55.00
2024-04-08T20:09:56.218Z,54.75
2024-04-08T20:11:01.115Z,54.87
2024-04-08T20:12:03.429Z,55.44
2024-04-08T20:13:08.200Z,55.66
2024-04-08T20:14:11.075Z,55.84
2024-04-08T20:15:13.183Z,56.47
2024-04-08T20:16:19.515Z,55.99
2024-04-08T20:17:21.841Z,55.88
2024-04-08T20:18:24.090Z,55.77
2024-04-08T20:19:30.257Z,55.41
2024-04-08T20:20:34.931Z,55.92
2024-04-08T20:21:39.655Z,55.89
2024-04-08T20:22:42.988Z,56.18
2024-04-08T20:23:45.042Z,55.93
2024-04-08T20:24:52.303Z,55.84
2024-04-08T20:25:55.287Z,56.02
2024-04-08T20:26:57.509Z,56.18
2024-04-08T20:28:02.198Z,55.97
2024-04-08T20:29:04.424Z,56.17
2024-04-08T20:30:07.694Z,56.18
2024-04-08T20:31:10.478Z,56.19
2024-04-08T20:32:15.395Z,56.39
2024-04-08T20:33:18.277Z,56.49
2024-04-08T20:34:20.656Z,56.42
2024-04-08T20:35:28.780Z,56.16
2024-04-08T20:36:31.181Z,56.54
2024-04-08T20:37:33.259Z,56.65
2024-04-08T20:38:36.820Z,56.41
2024-04-08T20:39:41.523Z,56.54
2024-04-08T20:40:43.606Z,56.52
2024-04-08T20:41:45.697Z,56.59
2024-04-08T20:42:48.904Z,56.66
2024-04-08T20:43:53.813Z,57.25
2024-04-08T20:44:56.910Z,57.29
2024-04-08T20:45:59.147Z,56.99
2024-04-08T20:47:03.939Z,57.33
2024-04-08T20:48:06.806Z,57.51
2024-04-08T20:49:09.514Z,57.48
2024-04-08T20:50:11.727Z,57.53
2024-04-08T20:51:19.739Z,57.26
2024-04-08T20:52:22.168Z,57.41
2024-04-08T20:53:24.486Z,57.10
2024-04-08T20:54:26.645Z,56.85
2024-04-08T20:55:31.562Z,57.29
2024-04-08T20:56:33.639Z,57.60
2024-04-08T20:57:35.883Z,57.71
2024-04-08T20:58:39.356Z,57.55
2024-04-08T20:59:44.067Z,58.07
2024-04-08T21:00:46.458Z,58.03
2024-04-08T21:01:48.619Z,58.02
2024-04-08T21:02:51.755Z,58.12
2024-04-08T21:03:56.878Z,58.40
2024-04-08T21:04:59.058Z,58.19
2024-04-08T21:06:01.695Z,57.97
2024-04-08T21:07:09.220Z,57.74
2024-04-08T21:08:11.466Z,58.35
2024-04-08T21:09:13.782Z,58.17
2024-04-08T21:10:15.986Z,58.80
2024-04-08T21:11:20.825Z,58.56
2024-04-08T21:12:23.240Z,58.33
2024-04-08T21:13:26.071Z,58.17
2024-04-08T21:14:30.777Z,58.44
2024-04-08T21:15:33.183Z,58.50
2024-04-08T21:16:35.607Z,58.53
2024-04-08T21:17:37.819Z,58.69
2024-04-08T21:18:43.100Z,58.56
2024-04-08T21:19:45.330Z,58.68
2024-04-08T21:20:48.024Z,58.41
2024-04-08T21:21:53.152Z,58.71
2024-04-08T21:22:58.573Z,58.50
2024-04-08T21:24:01.526Z,58.82
2024-04-08T21:25:05.644Z,58.74
2024-04-08T21:26:11.913Z,58.80
2024-04-08T21:27:14.017Z,58.71
2024-04-08T21:28:16.154Z,59.11
2024-04-08T21:29:20.947Z,59.06
2024-04-08T21:30:23.234Z,59.14
2024-04-08T21:31:25.403Z,59.15
2024-04-08T21:32:27.704Z,59.32
2024-04-08T21:33:32.543Z,58.84
2024-04-08T21:34:34.749Z,59.09
2024-04-08T21:35:39.824Z,59.18
2024-04-08T21:36:41.919Z,59.36
2024-04-08T21:37:46.740Z,59.36
2024-04-08T21:38:52.477Z,59.04
2024-04-08T21:39:54.887Z,59.35
2024-04-08T21:40:57.440Z,59.55
2024-04-08T21:42:02.799Z,59.55
2024-04-08T21:43:04.922Z,59.83
2024-04-08T21:44:07.051Z,60.07
2024-04-08T21:45:09.199Z,59.76
2024-04-08T21:46:17.625Z,59.83
2024-04-08T21:47:19.795Z,59.99
2024-04-08T21:48:22.455Z,59.18
2024-04-08T21:49:24.716Z,59.37
2024-04-08T21:50:36.407Z,59.41
2024-04-08T21:51:38.626Z,59.66
2024-04-08T21:52:40.776Z,59.53
2024-04-08T21:53:42.861Z,59.52
2024-04-08T21:54:50.243Z,59.46
2024-04-08T21:55:52.912Z,59.96
2024-04-08T21:56:55.041Z,59.95
2024-04-08T21:57:57.459Z,59.84
2024-04-08T21:59:02.334Z,59.85
2024-04-08T22:00:10.860Z,60.17
2024-04-08T22:01:13.649Z,59.77
2024-04-08T22:02:16.134Z,59.55
2024-04-08T22:03:21.031Z,59.38
2024-04-08T22:04:23.332Z,59.77
2024-04-08T22:05:25.525Z,59.68
2024-04-08T22:06:27.762Z,60.06
2024-04-08T22:07:32.476Z,60.13
2024-04-08T22:08:34.593Z,60.02
2024-04-08T22:09:36.850Z,59.81
2024-04-08T22:10:41.903Z,59.93
2024-04-08T22:11:46.737Z,60.07
2024-04-08T22:12:48.790Z,60.11
2024-04-08T22:13:51.072Z,60.28
2024-04-08T22:14:53.588Z,60.46
2024-04-08T22:15:58.413Z,60.50
2024-04-08T22:17:00.549Z,60.61
2024-04-08T22:18:03.103Z,60.77
2024-04-08T22:19:07.963Z,60.55
2024-04-08T22:20:10.680Z,60.26
2024-04-08T22:21:12.788Z,60.47
2024-04-08T22:22:14.977Z,60.31
2024-04-08T22:23:19.718Z,60.02
2024-04-08T22:24:21.953Z,60.46
2024-04-08T22:25:24.305Z,60.29
2024-04-08T22:26:31.702Z,60.29
2024-04-08T22:27:34.076Z,60.97
2024-04-08T22:28:36.397Z,61.03
2024-04-08T22:29:38.611Z,61.19
2024-04-08T22:30:43.749Z,61.14
2024-04-08T22:31:45.882Z,61.47
2024-04-08T22:32:48.133Z,61.31
2024-04-08T22:33:50.461Z,61.63
2024-04-08T22:34:55.367Z,61.30
2024-04-08T22:35:57.455Z,60.99
2024-04-08T22:36:59.676Z,61.49
2024-04-08T22:38:04.502Z,61.99
2024-04-08T22:39:07.177Z,62.05
2024-04-08T22:40:09.613Z,61.94
2024-04-08T22:41:18.656Z,61.50
2024-04-08T22:42:29.999Z,61.82
2024-04-08T22:43:32.176Z,61.75
2024-04-08T22:44:34.329Z,61.62
2024-04-08T22:45:36.878Z,61.74
2024-04-08T22:46:41.761Z,62.19
2024-04-08T22:47:44.644Z,62.15
2024-04-08T22:48:47.190Z,61.93
2024-04-08T22:49:49.513Z,61.80
2024-04-08T22:50:54.230Z,61.58
2024-04-08T22:51:56.496Z,61.97
2024-04-08T22:52:58.690Z,61.89
2024-04-08T22:54:01.089Z,61.78
2024-04-08T22:55:06.180Z,61.98
2024-04-08T22:56:08.325Z,61.99
2024-04-08T22:57:10.582Z,61.40
2024-04-08T22:58:18.021Z,61.19
2024-04-08T22:59:20.205Z,61.70
2024-04-08T23:00:22.481Z,61.59
2024-04-08T23:01:27.315Z,61.75
2024-04-08T23:02:30.069Z,61.82
2024-04-08T23:03:32.736Z,61.76
2024-04-08T23:04:35.699Z,61.79
2024-04-08T23:05:40.492Z,61.49
2024-04-08T23:06:42.768Z,62.16
2024-04-08T23:07:45.055Z,61.92
2024-04-08T23:08:47.555Z,61.99
2024-04-08T23:09:52.235Z,61.75
2024-04-08T23:10:54.428Z,61.92
2024-04-08T23:11:57.117Z,62.01
2024-04-08T23:13:01.870Z,62.09
2024-04-08T23:14:06.698Z,61.98
2024-04-08T23:15:08.816Z,62.22
2024-04-08T23:16:11.029Z,62.34
2024-04-08T23:17:15.894Z,62.44
2024-04-08T23:18:18.628Z,62.43
2024-04-08T23:19:21.070Z,62.22
2024-04-08T23:20:25.955Z,62.08
2024-04-08T23:21:28.155Z,62.61
2024-04-08T23:22:30.245Z,62.54
2024-04-08T23:23:32.580Z,62.58
2024-04-08T23:24:34.749Z,62.50
2024-04-08T23:25:39.733Z,61.94
2024-04-08T23:26:41.923Z,62.57
2024-04-08T23:27:44.089Z,62.17
2024-04-08T23:28:46.384Z,61.95
2024-04-08T23:29:53.861Z,61.71
2024-04-08T23:30:56.388Z,63.07
2024-04-08T23:31:58.588Z,63.21
2024-04-08T23:33:02.891Z,63.09
2024-04-08T23:34:08.949Z,62.92
2024-04-08T23:35:11.374Z,62.94
2024-04-08T23:36:13.569Z,62.71
2024-04-08T23:37:15.570Z,62.60
2024-04-08T23:38:20.289Z,62.26
2024-04-08T23:39:23.725Z,62.48
2024-04-08T23:40:25.887Z,62.57
2024-04-08T23:41:28.185Z,62.66
2024-04-08T23:42:33.032Z,62.81
2024-04-08T23:43:35.229Z,63.74
2024-04-08T23:44:37.453Z,63.37
2024-04-08T23:45:42.441Z,63.54
2024-04-08T23:46:45.570Z,63.89
2024-04-08T23:47:55.457Z,63.96
2024-04-08T23:48:57.870Z,64.17
2024-04-08T23:50:00.016Z,63.92
2024-04-08T23:51:03.129Z,63.46
2024-04-08T23:52:06.020Z,63.26
2024-04-08T23:53:11.906Z,62.99
2024-04-08T23:54:14.092Z,63.04
2024-04-08T23:55:16.431Z,63.25
2024-04-08T23:56:18.580Z,63.36
2024-04-08T23:57:23.436Z,63.25
2024-04-08T23:58:25.752Z,63.57
2024-04-08T23:59:27.851Z,63.60
